sensor_id;sensor_type;location;lat;lon;timestamp;pressure;altitude;pressure_sealevel;temperature;humidity
55490;BME280;44029;52.956;4.772;2023-03-15T00:00:48;101131.00;;;5.01;100.00
55490;BME280;44029;52.956;4.772;2023-03-15T00:03:13;101128.69;;;4.91;100.00
55490;BME280;44029;52.956;4.772;2023-03-15T00:05:47;101134.16;;;5.18;100.00
55490;BME280;44029;52.956;4.772;2023-03-15T00:08:13;101136.84;;;5.04;100.00
55490;BME280;44029;52.956;4.772;2023-03-15T00:10:40;101147.31;;;5.08;100.00
55490;BME280;44029;52.956;4.772;2023-03-15T00:13:06;101147.28;;;5.01;100.00
55490;BME280;44029;52.956;4.772;2023-03-15T00:15:32;101147.75;;;5.11;100.00
55490;BME280;44029;52.956;4.772;2023-03-15T00:17:57;101159.22;;;5.07;100.00
55490;BME280;44029;52.956;4.772;2023-03-15T00:20:22;101161.94;;;5.13;100.00
55490;BME280;44029;52.956;4.772;2023-03-15T00:22:47;101168.22;;;5.14;100.00
55490;BME280;44029;52.956;4.772;2023-03-15T00:25:13;101164.25;;;5.16;100.00
55490;BME280;44029;52.956;4.772;2023-03-15T00:27:38;101165.91;;;5.17;100.00
55490;BME280;44029;52.956;4.772;2023-03-15T00:30:04;101175.13;;;5.16;100.00
55490;BME280;44029;52.956;4.772;2023-03-15T00:32:29;101173.66;;;5.20;100.00
55490;BME280;44029;52.956;4.772;2023-03-15T00:34:55;101185.75;;;5.18;100.00
55490;BME280;44029;52.956;4.772;2023-03-15T00:37:21;101183.66;;;5.20;100.00
55490;BME280;44029;52.956;4.772;2023-03-15T00:39:50;101186.19;;;5.15;100.00
55490;BME280;44029;52.956;4.772;2023-03-15T00:42:16;101199.13;;;5.19;100.00
55490;BME280;44029;52.956;4.772;2023-03-15T00:44:42;101201.00;;;5.06;100.00
55490;BME280;44029;52.956;4.772;2023-03-15T00:47:12;101202.28;;;5.16;100.00
55490;BME280;44029;52.956;4.772;2023-03-15T00:49:39;101213.13;;;5.10;100.00
55490;BME280;44029;52.956;4.772;2023-03-15T00:52:05;101217.66;;;4.96;100.00
55490;BME280;44029;52.956;4.772;2023-03-15T00:54:31;101224.38;;;5.07;100.00
55490;BME280;44029;52.956;4.772;2023-03-15T00:56:59;101226.94;;;5.15;100.00
55490;BME280;44029;52.956;4.772;2023-03-15T00:59:27;101226.50;;;5.11;100.00
55490;BME280;44029;52.956;4.772;2023-03-15T01:01:53;101233.34;;;5.00;100.00
55490;BME280;44029;52.956;4.772;2023-03-15T01:04:18;101229.41;;;5.10;100.00
55490;BME280;44029;52.956;4.772;2023-03-15T01:06:43;101233.38;;;5.07;100.00
55490;BME280;44029;52.956;4.772;2023-03-15T01:09:09;101229.59;;;5.08;100.00
55490;BME280;44029;52.956;4.772;2023-03-15T01:11:34;101235.63;;;4.97;100.00
55490;BME280;44029;52.956;4.772;2023-03-15T01:14:00;101235.00;;;4.95;100.00
55490;BME280;44029;52.956;4.772;2023-03-15T01:16:27;101241.25;;;4.95;100.00
55490;BME280;44029;52.956;4.772;2023-03-15T01:18:53;101242.75;;;5.04;100.00
55490;BME280;44029;52.956;4.772;2023-03-15T01:21:20;101249.25;;;5.10;100.00
55490;BME280;44029;52.956;4.772;2023-03-15T01:23:45;101241.94;;;5.04;100.00
55490;BME280;44029;52.956;4.772;2023-03-15T01:26:13;101259.09;;;5.11;100.00
55490;BME280;44029;52.956;4.772;2023-03-15T01:28:39;101250.66;;;4.99;100.00
55490;BME280;44029;52.956;4.772;2023-03-15T01:31:04;101258.59;;;4.94;100.00
55490;BME280;44029;52.956;4.772;2023-03-15T01:33:31;101261.94;;;4.96;100.00
55490;BME280;44029;52.956;4.772;2023-03-15T01:36:04;101265.34;;;5.12;100.00
55490;BME280;44029;52.956;4.772;2023-03-15T01:38:31;101271.50;;;4.92;100.00
55490;BME280;44029;52.956;4.772;2023-03-15T01:40:56;101271.94;;;4.89;100.00
55490;BME280;44029;52.956;4.772;2023-03-15T01:43:24;101286.16;;;4.91;100.00
55490;BME280;44029;52.956;4.772;2023-03-15T01:48:23;101283.06;;;5.01;100.00
55490;BME280;44029;52.956;4.772;2023-03-15T01:50:50;101281.53;;;4.92;100.00
55490;BME280;44029;52.956;4.772;2023-03-15T01:53:21;101290.31;;;4.94;100.00
55490;BME280;44029;52.956;4.772;2023-03-15T01:55:47;101287.59;;;4.94;100.00
55490;BME280;44029;52.956;4.772;2023-03-15T01:58:13;101288.03;;;4.97;100.00
55490;BME280;44029;52.956;4.772;2023-03-15T02:00:38;101291.13;;;4.88;100.00
55490;BME280;44029;52.956;4.772;2023-03-15T02:03:05;101294.06;;;4.86;100.00
55490;BME280;44029;52.956;4.772;2023-03-15T02:05:35;101286.97;;;4.92;100.00
55490;BME280;44029;52.956;4.772;2023-03-15T02:08:03;101296.19;;;4.91;100.00
55490;BME280;44029;52.956;4.772;2023-03-15T02:10:36;101297.19;;;4.90;100.00
55490;BME280;44029;52.956;4.772;2023-03-15T02:13:05;101312.63;;;4.82;100.00
55490;BME280;44029;52.956;4.772;2023-03-15T02:15:31;101318.47;;;4.86;100.00
55490;BME280;44029;52.956;4.772;2023-03-15T02:17:56;101314.16;;;4.98;100.00
55490;BME280;44029;52.956;4.772;2023-03-15T02:23:11;101341.50;;;4.97;100.00
55490;BME280;44029;52.956;4.772;2023-03-15T02:25:59;101342.91;;;4.79;100.00
55490;BME280;44029;52.956;4.772;2023-03-15T02:28:27;101351.72;;;4.60;100.00
55490;BME280;44029;52.956;4.772;2023-03-15T02:30:52;101358.34;;;4.51;100.00
55490;BME280;44029;52.956;4.772;2023-03-15T02:33:26;101355.47;;;4.59;100.00
55490;BME280;44029;52.956;4.772;2023-03-15T02:35:54;101364.69;;;4.36;100.00
55490;BME280;44029;52.956;4.772;2023-03-15T02:38:20;101379.38;;;4.20;100.00
55490;BME280;44029;52.956;4.772;2023-03-15T02:40:47;101380.34;;;4.13;100.00
55490;BME280;44029;52.956;4.772;2023-03-15T02:43:16;101394.53;;;4.36;100.00
55490;BME280;44029;52.956;4.772;2023-03-15T02:45:44;101398.69;;;4.32;100.00
55490;BME280;44029;52.956;4.772;2023-03-15T02:48:11;101391.25;;;4.19;100.00
55490;BME280;44029;52.956;4.772;2023-03-15T02:50:37;101395.25;;;4.23;100.00
55490;BME280;44029;52.956;4.772;2023-03-15T02:53:03;101402.81;;;4.06;100.00
55490;BME280;44029;52.956;4.772;2023-03-15T02:55:29;101410.22;;;3.98;100.00
55490;BME280;44029;52.956;4.772;2023-03-15T02:57:57;101425.59;;;3.91;100.00
55490;BME280;44029;52.956;4.772;2023-03-15T03:00:22;101440.34;;;3.88;100.00
55490;BME280;44029;52.956;4.772;2023-03-15T03:02:48;101437.81;;;3.65;100.00
55490;BME280;44029;52.956;4.772;2023-03-15T03:05:15;101451.75;;;3.47;100.00
55490;BME280;44029;52.956;4.772;2023-03-15T03:07:41;101475.47;;;3.30;100.00
55490;BME280;44029;52.956;4.772;2023-03-15T03:10:14;101492.84;;;3.36;100.00
55490;BME280;44029;52.956;4.772;2023-03-15T03:12:40;101500.13;;;3.20;100.00
55490;BME280;44029;52.956;4.772;2023-03-15T03:15:06;101503.09;;;3.25;100.00
55490;BME280;44029;52.956;4.772;2023-03-15T03:17:32;101514.56;;;3.27;100.00
55490;BME280;44029;52.956;4.772;2023-03-15T03:20:04;101523.13;;;3.01;100.00
55490;BME280;44029;52.956;4.772;2023-03-15T03:22:32;101539.75;;;2.98;100.00
55490;BME280;44029;52.956;4.772;2023-03-15T03:24:58;101522.13;;;2.79;100.00
55490;BME280;44029;52.956;4.772;2023-03-15T03:27:23;101525.06;;;2.78;100.00
55490;BME280;44029;52.956;4.772;2023-03-15T03:29:49;101514.19;;;2.63;100.00
55490;BME280;44029;52.956;4.772;2023-03-15T03:32:14;101514.09;;;2.71;100.00
55490;BME280;44029;52.956;4.772;2023-03-15T03:34:39;101518.72;;;2.62;100.00
55490;BME280;44029;52.956;4.772;2023-03-15T03:37:05;101529.63;;;2.54;100.00
55490;BME280;44029;52.956;4.772;2023-03-15T03:39:30;101540.13;;;2.72;100.00
55490;BME280;44029;52.956;4.772;2023-03-15T03:41:55;101540.03;;;2.65;100.00
55490;BME280;44029;52.956;4.772;2023-03-15T03:44:21;101533.22;;;2.69;100.00
55490;BME280;44029;52.956;4.772;2023-03-15T03:46:46;101542.59;;;2.82;100.00
55490;BME280;44029;52.956;4.772;2023-03-15T03:49:12;101534.69;;;2.95;100.00
55490;BME280;44029;52.956;4.772;2023-03-15T03:51:38;101532.53;;;2.90;100.00
55490;BME280;44029;52.956;4.772;2023-03-15T03:54:04;101530.88;;;2.66;100.00
55490;BME280;44029;52.956;4.772;2023-03-15T03:56:29;101532.00;;;2.72;100.00
55490;BME280;44029;52.956;4.772;2023-03-15T03:58:55;101531.47;;;2.77;100.00
55490;BME280;44029;52.956;4.772;2023-03-15T04:01:20;101546.19;;;2.97;100.00
55490;BME280;44029;52.956;4.772;2023-03-15T04:03:47;101539.53;;;3.00;100.00
55490;BME280;44029;52.956;4.772;2023-03-15T04:06:12;101541.59;;;2.98;100.00
55490;BME280;44029;52.956;4.772;2023-03-15T04:08:38;101545.78;;;2.85;100.00
55490;BME280;44029;52.956;4.772;2023-03-15T04:11:05;101547.09;;;2.66;100.00
55490;BME280;44029;52.956;4.772;2023-03-15T04:13:31;101554.75;;;2.63;100.00
55490;BME280;44029;52.956;4.772;2023-03-15T04:15:56;101557.09;;;2.66;100.00
55490;BME280;44029;52.956;4.772;2023-03-15T04:18:23;101561.53;;;2.59;100.00
55490;BME280;44029;52.956;4.772;2023-03-15T04:20:48;101564.66;;;2.47;100.00
55490;BME280;44029;52.956;4.772;2023-03-15T04:23:18;101548.34;;;2.32;100.00
55490;BME280;44029;52.956;4.772;2023-03-15T04:25:47;101559.63;;;2.44;100.00
55490;BME280;44029;52.956;4.772;2023-03-15T04:28:13;101560.84;;;2.34;100.00
55490;BME280;44029;52.956;4.772;2023-03-15T04:30:38;101567.28;;;2.32;100.00
55490;BME280;44029;52.956;4.772;2023-03-15T04:33:07;101565.69;;;2.46;100.00
55490;BME280;44029;52.956;4.772;2023-03-15T04:35:34;101572.81;;;2.39;100.00
55490;BME280;44029;52.956;4.772;2023-03-15T04:38:00;101572.19;;;2.29;100.00
55490;BME280;44029;52.956;4.772;2023-03-15T04:40:26;101581.94;;;2.38;100.00
55490;BME280;44029;52.956;4.772;2023-03-15T04:42:52;101585.53;;;2.30;100.00
55490;BME280;44029;52.956;4.772;2023-03-15T04:45:24;101590.94;;;2.30;100.00
55490;BME280;44029;52.956;4.772;2023-03-15T04:47:53;101598.91;;;2.24;100.00
55490;BME280;44029;52.956;4.772;2023-03-15T04:50:20;101600.66;;;2.17;100.00
55490;BME280;44029;52.956;4.772;2023-03-15T04:52:46;101601.16;;;2.12;100.00
55490;BME280;44029;52.956;4.772;2023-03-15T04:55:11;101599.78;;;2.16;100.00
55490;BME280;44029;52.956;4.772;2023-03-15T04:57:37;101603.59;;;1.99;100.00
55490;BME280;44029;52.956;4.772;2023-03-15T05:00:04;101606.50;;;1.89;100.00
55490;BME280;44029;52.956;4.772;2023-03-15T05:02:34;101607.84;;;1.93;100.00
55490;BME280;44029;52.956;4.772;2023-03-15T05:05:04;101612.59;;;1.83;100.00
55490;BME280;44029;52.956;4.772;2023-03-15T05:07:30;101615.94;;;1.93;100.00
55490;BME280;44029;52.956;4.772;2023-03-15T05:09:55;101613.25;;;1.93;100.00
55490;BME280;44029;52.956;4.772;2023-03-15T05:12:20;101622.53;;;1.90;100.00
55490;BME280;44029;52.956;4.772;2023-03-15T05:14:45;101617.66;;;1.78;100.00
55490;BME280;44029;52.956;4.772;2023-03-15T05:17:11;101623.06;;;1.78;100.00
55490;BME280;44029;52.956;4.772;2023-03-15T05:19:36;101626.59;;;1.86;100.00
55490;BME280;44029;52.956;4.772;2023-03-15T05:22:02;101620.84;;;1.89;100.00
55490;BME280;44029;52.956;4.772;2023-03-15T05:24:29;101627.09;;;1.90;100.00
55490;BME280;44029;52.956;4.772;2023-03-15T05:26:54;101630.63;;;1.90;100.00
55490;BME280;44029;52.956;4.772;2023-03-15T05:29:21;101629.06;;;2.04;100.00
55490;BME280;44029;52.956;4.772;2023-03-15T05:31:47;101630.13;;;1.95;100.00
55490;BME280;44029;52.956;4.772;2023-03-15T05:34:13;101631.44;;;2.07;100.00
55490;BME280;44029;52.956;4.772;2023-03-15T05:36:38;101619.94;;;2.45;100.00
55490;BME280;44029;52.956;4.772;2023-03-15T05:39:04;101622.50;;;2.69;100.00
55490;BME280;44029;52.956;4.772;2023-03-15T05:41:30;101616.97;;;2.86;100.00
55490;BME280;44029;52.956;4.772;2023-03-15T05:43:56;101616.69;;;3.04;100.00
55490;BME280;44029;52.956;4.772;2023-03-15T05:46:21;101614.19;;;3.17;100.00
55490;BME280;44029;52.956;4.772;2023-03-15T05:48:47;101610.97;;;3.37;100.00
55490;BME280;44029;52.956;4.772;2023-03-15T05:51:13;101619.81;;;3.31;100.00
55490;BME280;44029;52.956;4.772;2023-03-15T05:53:38;101615.38;;;3.38;100.00
55490;BME280;44029;52.956;4.772;2023-03-15T05:56:03;101628.72;;;3.39;100.00
55490;BME280;44029;52.956;4.772;2023-03-15T05:58:29;101620.16;;;3.51;100.00
55490;BME280;44029;52.956;4.772;2023-03-15T06:00:54;101626.13;;;3.61;100.00
55490;BME280;44029;52.956;4.772;2023-03-15T06:03:20;101629.53;;;3.63;100.00
55490;BME280;44029;52.956;4.772;2023-03-15T06:05:45;101626.19;;;3.76;100.00
55490;BME280;44029;52.956;4.772;2023-03-15T06:08:10;101636.25;;;3.67;100.00
55490;BME280;44029;52.956;4.772;2023-03-15T06:10:36;101642.88;;;3.79;100.00
55490;BME280;44029;52.956;4.772;2023-03-15T06:13:02;101645.41;;;4.11;100.00
55490;BME280;44029;52.956;4.772;2023-03-15T06:15:27;101643.91;;;4.38;100.00
55490;BME280;44029;52.956;4.772;2023-03-15T06:17:52;101645.16;;;4.93;100.00
55490;BME280;44029;52.956;4.772;2023-03-15T06:20:18;101653.00;;;5.25;100.00
55490;BME280;44029;52.956;4.772;2023-03-15T06:22:43;101642.56;;;5.50;100.00
55490;BME280;44029;52.956;4.772;2023-03-15T06:25:09;101648.88;;;5.85;100.00
55490;BME280;44029;52.956;4.772;2023-03-15T06:27:36;101648.50;;;5.95;100.00
55490;BME280;44029;52.956;4.772;2023-03-15T06:30:02;101647.75;;;5.23;100.00
55490;BME280;44029;52.956;4.772;2023-03-15T06:32:28;101653.91;;;5.32;100.00
55490;BME280;44029;52.956;4.772;2023-03-15T06:34:54;101650.56;;;5.36;100.00
55490;BME280;44029;52.956;4.772;2023-03-15T06:37:19;101660.16;;;5.54;100.00
55490;BME280;44029;52.956;4.772;2023-03-15T06:39:46;101659.41;;;5.67;100.00
55490;BME280;44029;52.956;4.772;2023-03-15T06:42:12;101666.78;;;5.51;100.00
55490;BME280;44029;52.956;4.772;2023-03-15T06:44:40;101665.03;;;5.65;100.00
55490;BME280;44029;52.956;4.772;2023-03-15T06:47:07;101671.22;;;5.80;100.00
55490;BME280;44029;52.956;4.772;2023-03-15T06:49:32;101671.47;;;6.55;100.00
55490;BME280;44029;52.956;4.772;2023-03-15T06:51:58;101670.22;;;6.58;100.00
55490;BME280;44029;52.956;4.772;2023-03-15T06:54:24;101676.81;;;6.35;100.00
55490;BME280;44029;52.956;4.772;2023-03-15T06:56:49;101665.47;;;6.80;100.00
55490;BME280;44029;52.956;4.772;2023-03-15T06:59:15;101673.88;;;6.85;100.00
55490;BME280;44029;52.956;4.772;2023-03-15T07:01:40;101677.19;;;6.81;100.00
55490;BME280;44029;52.956;4.772;2023-03-15T07:04:06;101670.75;;;6.95;100.00
55490;BME280;44029;52.956;4.772;2023-03-15T07:06:32;101682.69;;;6.94;100.00
55490;BME280;44029;52.956;4.772;2023-03-15T07:08:57;101691.34;;;7.11;100.00
55490;BME280;44029;52.956;4.772;2023-03-15T07:11:23;101694.44;;;7.01;100.00
55490;BME280;44029;52.956;4.772;2023-03-15T07:13:48;101703.06;;;7.11;100.00
55490;BME280;44029;52.956;4.772;2023-03-15T07:16:13;101693.06;;;7.45;100.00
55490;BME280;44029;52.956;4.772;2023-03-15T07:18:39;101686.94;;;8.10;100.00
55490;BME280;44029;52.956;4.772;2023-03-15T07:21:04;101693.88;;;8.06;100.00
55490;BME280;44029;52.956;4.772;2023-03-15T07:23:31;101701.25;;;7.39;100.00
55490;BME280;44029;52.956;4.772;2023-03-15T07:25:57;101701.03;;;8.79;100.00
55490;BME280;44029;52.956;4.772;2023-03-15T07:28:24;101696.16;;;9.51;100.00
55490;BME280;44029;52.956;4.772;2023-03-15T07:30:57;101692.91;;;10.11;100.00
55490;BME280;44029;52.956;4.772;2023-03-15T07:33:24;101704.09;;;10.28;100.00
55490;BME280;44029;52.956;4.772;2023-03-15T07:35:50;101708.31;;;10.31;100.00
55490;BME280;44029;52.956;4.772;2023-03-15T07:38:17;101712.75;;;10.50;100.00
55490;BME280;44029;52.956;4.772;2023-03-15T07:40:43;101717.75;;;10.90;100.00
55490;BME280;44029;52.956;4.772;2023-03-15T07:43:08;101715.63;;;10.74;100.00
55490;BME280;44029;52.956;4.772;2023-03-15T07:45:33;101718.84;;;11.01;99.82
55490;BME280;44029;52.956;4.772;2023-03-15T07:47:59;101716.06;;;11.19;98.18
55490;BME280;44029;52.956;4.772;2023-03-15T07:50:25;101721.28;;;11.09;100.00
55490;BME280;44029;52.956;4.772;2023-03-15T07:52:50;101722.66;;;10.51;100.00
55490;BME280;44029;52.956;4.772;2023-03-15T07:55:16;101726.72;;;9.98;100.00
55490;BME280;44029;52.956;4.772;2023-03-15T07:57:41;101734.81;;;10.74;100.00
55490;BME280;44029;52.956;4.772;2023-03-15T08:00:07;101729.97;;;10.57;100.00
55490;BME280;44029;52.956;4.772;2023-03-15T08:02:33;101735.16;;;9.97;100.00
55490;BME280;44029;52.956;4.772;2023-03-15T08:04:58;101736.63;;;9.11;100.00
55490;BME280;44029;52.956;4.772;2023-03-15T08:07:23;101737.97;;;9.33;100.00
55490;BME280;44029;52.956;4.772;2023-03-15T08:09:49;101732.22;;;9.41;100.00
55490;BME280;44029;52.956;4.772;2023-03-15T08:12:14;101738.28;;;10.25;100.00
55490;BME280;44029;52.956;4.772;2023-03-15T08:14:40;101736.81;;;11.15;100.00
55490;BME280;44029;52.956;4.772;2023-03-15T08:17:05;101738.69;;;10.85;99.19
55490;BME280;44029;52.956;4.772;2023-03-15T08:19:31;101742.28;;;10.48;95.57
55490;BME280;44029;52.956;4.772;2023-03-15T08:21:56;101754.28;;;10.47;97.64
55490;BME280;44029;52.956;4.772;2023-03-15T08:24:21;101764.94;;;10.37;96.58
55490;BME280;44029;52.956;4.772;2023-03-15T08:26:47;101755.59;;;10.44;96.88
55490;BME280;44029;52.956;4.772;2023-03-15T08:29:13;101767.00;;;10.78;93.43
55490;BME280;44029;52.956;4.772;2023-03-15T08:31:39;101770.31;;;10.00;94.06
55490;BME280;44029;52.956;4.772;2023-03-15T08:34:06;101781.31;;;10.62;95.05
55490;BME280;44029;52.956;4.772;2023-03-15T08:36:31;101785.25;;;9.72;93.95
55490;BME280;44029;52.956;4.772;2023-03-15T08:38:57;101779.06;;;10.59;93.19
55490;BME280;44029;52.956;4.772;2023-03-15T08:41:22;101789.91;;;10.47;92.17
55490;BME280;44029;52.956;4.772;2023-03-15T08:43:47;101786.25;;;10.35;95.18
55490;BME280;44029;52.956;4.772;2023-03-15T08:46:12;101793.16;;;10.37;94.93
55490;BME280;44029;52.956;4.772;2023-03-15T08:48:38;101794.66;;;10.08;95.23
55490;BME280;44029;52.956;4.772;2023-03-15T08:51:04;101795.22;;;10.17;96.29
55490;BME280;44029;52.956;4.772;2023-03-15T08:53:31;101799.34;;;10.01;96.45
55490;BME280;44029;52.956;4.772;2023-03-15T08:55:57;101797.88;;;10.05;96.19
55490;BME280;44029;52.956;4.772;2023-03-15T08:58:22;101788.91;;;10.41;94.71
55490;BME280;44029;52.956;4.772;2023-03-15T09:00:49;101790.00;;;10.40;93.62
55490;BME280;44029;52.956;4.772;2023-03-15T09:03:15;101785.34;;;10.41;92.17
55490;BME280;44029;52.956;4.772;2023-03-15T09:05:41;101790.41;;;10.62;93.85
55490;BME280;44029;52.956;4.772;2023-03-15T09:08:06;101789.47;;;10.00;96.23
55490;BME280;44029;52.956;4.772;2023-03-15T09:10:32;101791.34;;;9.74;99.50
55490;BME280;44029;52.956;4.772;2023-03-15T09:12:58;101789.91;;;9.33;100.00
55490;BME280;44029;52.956;4.772;2023-03-15T09:15:23;101784.25;;;9.35;100.00
55490;BME280;44029;52.956;4.772;2023-03-15T09:17:49;101789.59;;;9.16;100.00
55490;BME280;44029;52.956;4.772;2023-03-15T09:20:15;101792.81;;;8.93;100.00
55490;BME280;44029;52.956;4.772;2023-03-15T09:22:44;101786.38;;;8.74;100.00
55490;BME280;44029;52.956;4.772;2023-03-15T09:25:13;101796.28;;;8.62;100.00
55490;BME280;44029;52.956;4.772;2023-03-15T09:27:38;101791.44;;;8.70;100.00
55490;BME280;44029;52.956;4.772;2023-03-15T09:30:04;101792.25;;;8.71;100.00
55490;BME280;44029;52.956;4.772;2023-03-15T09:32:30;101803.03;;;8.12;100.00
55490;BME280;44029;52.956;4.772;2023-03-15T09:35:00;101808.06;;;8.56;100.00
55490;BME280;44029;52.956;4.772;2023-03-15T09:37:26;101811.59;;;8.69;100.00
55490;BME280;44029;52.956;4.772;2023-03-15T09:39:52;101819.13;;;8.87;100.00
55490;BME280;44029;52.956;4.772;2023-03-15T09:42:24;101825.41;;;8.88;100.00
55490;BME280;44029;52.956;4.772;2023-03-15T09:48:10;101834.50;;;8.62;100.00
55490;BME280;44029;52.956;4.772;2023-03-15T09:50:45;101847.53;;;8.26;100.00
55490;BME280;44029;52.956;4.772;2023-03-15T09:53:20;101844.78;;;8.06;100.00
55490;BME280;44029;52.956;4.772;2023-03-15T09:55:50;101846.94;;;8.31;100.00
55490;BME280;44029;52.956;4.772;2023-03-15T09:58:20;101842.09;;;8.60;100.00
55490;BME280;44029;52.956;4.772;2023-03-15T10:00:51;101837.91;;;8.50;100.00
55490;BME280;44029;52.956;4.772;2023-03-15T10:03:22;101848.78;;;8.64;100.00
55490;BME280;44029;52.956;4.772;2023-03-15T10:05:55;101848.38;;;8.67;100.00
55490;BME280;44029;52.956;4.772;2023-03-15T10:08:23;101857.59;;;8.32;100.00
55490;BME280;44029;52.956;4.772;2023-03-15T10:16:38;101862.88;;;8.27;100.00
55490;BME280;44029;52.956;4.772;2023-03-15T10:27:48;101863.28;;;8.38;100.00
55490;BME280;44029;52.956;4.772;2023-03-15T10:30:25;101859.31;;;8.74;100.00
55490;BME280;44029;52.956;4.772;2023-03-15T10:33:04;101874.41;;;8.69;100.00
55490;BME280;44029;52.956;4.772;2023-03-15T10:35:33;101883.28;;;8.51;100.00
55490;BME280;44029;52.956;4.772;2023-03-15T10:37:58;101886.84;;;8.45;100.00
55490;BME280;44029;52.956;4.772;2023-03-15T10:40:45;101894.63;;;8.48;100.00
55490;BME280;44029;52.956;4.772;2023-03-15T10:46:11;101907.00;;;8.51;100.00
55490;BME280;44029;52.956;4.772;2023-03-15T10:48:38;101910.59;;;8.45;100.00
55490;BME280;44029;52.956;4.772;2023-03-15T10:53:52;101910.09;;;8.35;100.00
55490;BME280;44029;52.956;4.772;2023-03-15T10:56:24;101916.63;;;8.33;100.00
55490;BME280;44029;52.956;4.772;2023-03-15T10:58:52;101914.34;;;8.50;100.00
55490;BME280;44029;52.956;4.772;2023-03-15T11:01:29;101920.88;;;8.56;100.00
55490;BME280;44029;52.956;4.772;2023-03-15T11:04:12;101917.72;;;8.52;100.00
55490;BME280;44029;52.956;4.772;2023-03-15T11:09:19;101917.72;;;8.52;100.00
55490;BME280;44029;52.956;4.772;2023-03-15T11:12:06;101920.41;;;8.32;100.00
55490;BME280;44029;52.956;4.772;2023-03-15T11:14:33;101918.78;;;8.45;100.00
55490;BME280;44029;52.956;4.772;2023-03-15T11:17:01;101915.84;;;8.60;100.00
55490;BME280;44029;52.956;4.772;2023-03-15T11:19:29;101926.13;;;8.64;100.00
55490;BME280;44029;52.956;4.772;2023-03-15T11:21:57;101919.19;;;8.68;100.00
55490;BME280;44029;52.956;4.772;2023-03-15T11:24:31;101921.31;;;8.66;100.00
55490;BME280;44029;52.956;4.772;2023-03-15T11:26:59;101918.75;;;8.58;100.00
55490;BME280;44029;52.956;4.772;2023-03-15T11:29:29;101920.03;;;8.62;100.00
55490;BME280;44029;52.956;4.772;2023-03-15T11:31:57;101922.97;;;8.67;100.00
55490;BME280;44029;52.956;4.772;2023-03-15T11:37:08;101916.69;;;8.74;100.00
55490;BME280;44029;52.956;4.772;2023-03-15T11:40:08;101924.66;;;8.68;100.00
55490;BME280;44029;52.956;4.772;2023-03-15T11:42:37;101912.88;;;8.75;100.00
55490;BME280;44029;52.956;4.772;2023-03-15T11:45:15;101906.97;;;8.84;100.00
55490;BME280;44029;52.956;4.772;2023-03-15T11:47:48;101918.34;;;8.75;100.00
55490;BME280;44029;52.956;4.772;2023-03-15T11:50:15;101924.66;;;8.55;100.00
55490;BME280;44029;52.956;4.772;2023-03-15T11:52:41;101924.22;;;8.71;100.00
55490;BME280;44029;52.956;4.772;2023-03-15T11:55:26;101924.88;;;8.67;100.00
55490;BME280;44029;52.956;4.772;2023-03-15T11:57:52;101911.66;;;8.57;100.00
55490;BME280;44029;52.956;4.772;2023-03-15T12:00:25;101926.13;;;8.71;100.00
55490;BME280;44029;52.956;4.772;2023-03-15T12:02:55;101920.00;;;8.89;100.00
55490;BME280;44029;52.956;4.772;2023-03-15T12:05:42;101915.34;;;9.03;100.00
55490;BME280;44029;52.956;4.772;2023-03-15T12:10:52;101917.06;;;8.90;100.00
55490;BME280;44029;52.956;4.772;2023-03-15T12:13:21;101922.94;;;9.01;100.00
55490;BME280;44029;52.956;4.772;2023-03-15T12:15:48;101930.09;;;8.75;100.00
55490;BME280;44029;52.956;4.772;2023-03-15T12:18:17;101934.72;;;9.01;100.00
55490;BME280;44029;52.956;4.772;2023-03-15T12:20:49;101925.88;;;8.99;100.00
55490;BME280;44029;52.956;4.772;2023-03-15T12:23:27;101929.22;;;9.15;100.00
55490;BME280;44029;52.956;4.772;2023-03-15T12:25:56;101921.25;;;8.93;100.00
55490;BME280;44029;52.956;4.772;2023-03-15T12:28:30;101927.13;;;9.17;100.00
55490;BME280;44029;52.956;4.772;2023-03-15T12:30:59;101927.69;;;9.32;100.00
55490;BME280;44029;52.956;4.772;2023-03-15T12:33:27;101931.75;;;9.09;100.00
55490;BME280;44029;52.956;4.772;2023-03-15T12:36:02;101931.50;;;9.18;100.00
55490;BME280;44029;52.956;4.772;2023-03-15T12:38:38;101923.97;;;9.20;100.00
55490;BME280;44029;52.956;4.772;2023-03-15T12:41:08;101927.97;;;9.04;100.00
55490;BME280;44029;52.956;4.772;2023-03-15T12:44:22;101919.56;;;9.05;100.00
55490;BME280;44029;52.956;4.772;2023-03-15T12:54:50;101918.69;;;9.18;100.00
55490;BME280;44029;52.956;4.772;2023-03-15T12:57:23;101920.19;;;9.01;100.00
55490;BME280;44029;52.956;4.772;2023-03-15T13:00:17;101918.44;;;9.26;100.00
55490;BME280;44029;52.956;4.772;2023-03-15T13:02:47;101918.72;;;9.05;100.00
55490;BME280;44029;52.956;4.772;2023-03-15T13:08:07;101918.53;;;8.93;100.00
55490;BME280;44029;52.956;4.772;2023-03-15T13:13:13;101915.41;;;8.76;100.00
55490;BME280;44029;52.956;4.772;2023-03-15T13:18:28;101913.69;;;8.95;100.00
55490;BME280;44029;52.956;4.772;2023-03-15T13:23:56;101914.97;;;8.93;100.00
55490;BME280;44029;52.956;4.772;2023-03-15T13:26:34;101910.94;;;8.95;100.00
55490;BME280;44029;52.956;4.772;2023-03-15T13:29:13;101914.94;;;9.13;100.00
55490;BME280;44029;52.956;4.772;2023-03-15T13:31:42;101915.59;;;8.75;100.00
55490;BME280;44029;52.956;4.772;2023-03-15T13:34:21;101912.44;;;8.91;100.00
55490;BME280;44029;52.956;4.772;2023-03-15T13:36:53;101918.53;;;8.73;100.00
55490;BME280;44029;52.956;4.772;2023-03-15T13:39:51;101911.41;;;8.85;100.00
55490;BME280;44029;52.956;4.772;2023-03-15T13:42:19;101908.03;;;8.57;100.00
55490;BME280;44029;52.956;4.772;2023-03-15T13:44:45;101916.06;;;8.51;100.00
55490;BME280;44029;52.956;4.772;2023-03-15T13:47:19;101919.19;;;8.68;100.00
55490;BME280;44029;52.956;4.772;2023-03-15T13:49:51;101908.69;;;8.65;100.00